createdAt,value
2022-08-22T00:02:09.007Z,59.30
2022-08-22T00:02:44.479Z,57.00
2022-08-22T00:02:57.280Z,55.99
2022-08-22T00:03:10.105Z,50.96
2022-08-22T00:04:49.319Z,59.25
2022-08-22T00:07:31.174Z,59.48
2022-08-22T00:10:10.604Z,59.73
2022-08-22T00:12:53.695Z,59.69
2022-08-22T00:15:43.405Z,60.00
2022-08-22T00:18:21.679Z,60.08
2022-08-22T00:21:01.550Z,60.30
2022-08-22T00:23:40.490Z,60.56
2022-08-22T00:26:27.398Z,60.68
2022-08-22T00:29:06.100Z,60.77
2022-08-22T00:31:41.764Z,61.05
2022-08-22T00:34:18.454Z,61.17
2022-08-22T00:36:56.131Z,61.21
2022-08-22T00:39:35.382Z,61.49
2022-08-22T00:42:38.292Z,61.61
2022-08-22T00:45:41.035Z,61.78
2022-08-22T00:48:43.720Z,61.96
2022-08-22T00:51:36.467Z,62.15
2022-08-22T00:54:19.732Z,62.13
2022-08-22T00:57:08.801Z,62.28
2022-08-22T01:00:13.272Z,62.29
2022-08-22T01:03:12.608Z,62.23
2022-08-22T01:06:08.249Z,62.50
2022-08-22T01:08:58.205Z,62.58
2022-08-22T01:11:50.774Z,62.62
2022-08-22T01:14:39.227Z,62.47
2022-08-22T01:17:39.248Z,62.76
2022-08-22T01:20:46.506Z,62.68
2022-08-22T01:23:58.715Z,62.74
2022-08-22T01:27:27.950Z,62.83
2022-08-22T01:30:19.616Z,62.78
2022-08-22T01:33:37.310Z,62.90
2022-08-22T01:36:39.741Z,62.91
2022-08-22T01:39:52.763Z,62.88
2022-08-22T01:42:43.282Z,62.89
2022-08-22T01:45:44.563Z,62.98
2022-08-22T01:48:21.602Z,62.86
2022-08-22T01:50:59.491Z,62.97
2022-08-22T01:53:44.308Z,62.84
2022-08-22T01:56:21.436Z,62.90
2022-08-22T01:59:02.241Z,62.92
2022-08-22T02:01:47.897Z,62.94
2022-08-22T02:04:30.048Z,62.89
2022-08-22T02:07:09.246Z,62.96
2022-08-22T02:09:49.839Z,63.20
2022-08-22T02:12:33.893Z,63.08
2022-08-22T02:15:18.949Z,63.11
2022-08-22T02:18:05.752Z,63.05
2022-08-22T02:20:43.349Z,63.05
2022-08-22T02:23:25.813Z,63.05
2022-08-22T02:26:09.684Z,63.11
2022-08-22T02:28:57.018Z,63.21
2022-08-22T02:31:44.029Z,63.07
2022-08-22T02:34:29.847Z,63.05
2022-08-22T02:37:15.195Z,63.13
2022-08-22T02:39:54.949Z,63.13
2022-08-22T02:42:35.184Z,63.17
2022-08-22T02:45:22.655Z,63.08
2022-08-22T02:48:02.152Z,63.10
2022-08-22T02:50:44.255Z,63.07
2022-08-22T02:53:23.291Z,63.08
2022-08-22T02:56:01.607Z,63.05
2022-08-22T02:58:44.184Z,63.14
2022-08-22T03:01:34.632Z,62.97
2022-08-22T03:04:28.201Z,63.09
2022-08-22T03:07:16.071Z,63.21
2022-08-22T03:09:52.872Z,63.01
2022-08-22T03:12:32.351Z,62.87
2022-08-22T03:15:14.225Z,63.05
2022-08-22T03:17:59.783Z,63.03
2022-08-22T03:20:51.735Z,62.98
2022-08-22T03:23:32.384Z,63.04
2022-08-22T03:26:16.228Z,63.01
2022-08-22T03:28:59.819Z,62.90
2022-08-22T03:31:34.168Z,63.06
2022-08-22T03:34:25.240Z,62.91
2022-08-22T03:37:07.911Z,62.93
2022-08-22T03:39:54.454Z,62.77
2022-08-22T03:42:56.290Z,62.66
2022-08-22T03:45:49.768Z,62.92
2022-08-22T03:48:39.574Z,62.78
2022-08-22T03:51:49.284Z,62.48
2022-08-22T03:55:06.420Z,62.67
2022-08-22T03:57:54.684Z,62.63
2022-08-22T04:00:56.062Z,62.54
2022-08-22T04:04:00.534Z,62.72
2022-08-22T04:07:05.908Z,62.32
2022-08-22T04:10:16.100Z,62.31
2022-08-22T04:13:11.368Z,62.09
2022-08-22T04:15:59.891Z,62.09
2022-08-22T04:19:15.404Z,62.03
2022-08-22T04:22:21.924Z,62.17
2022-08-22T04:25:03.687Z,61.93
2022-08-22T04:27:49.871Z,62.02
2022-08-22T04:30:31.510Z,61.86
2022-08-22T04:33:09.332Z,61.73
2022-08-22T04:35:46.512Z,61.65
2022-08-22T04:38:25.345Z,61.86
2022-08-22T04:41:04.717Z,61.64
2022-08-22T04:43:42.556Z,61.55
2022-08-22T04:46:21.296Z,61.51
2022-08-22T04:48:59.099Z,61.49
2022-08-22T04:51:36.691Z,61.51
2022-08-22T04:54:27.360Z,61.49
2022-08-22T04:57:15.822Z,61.32
2022-08-22T04:59:48.752Z,61.34
2022-08-22T05:02:28.897Z,61.60
2022-08-22T05:05:05.054Z,61.22
2022-08-22T05:07:51.288Z,61.50
2022-08-22T05:10:27.163Z,61.14
2022-08-22T05:13:04.574Z,61.23
2022-08-22T05:15:40.437Z,61.05
2022-08-22T05:18:20.460Z,61.40
2022-08-22T05:20:56.151Z,61.04
2022-08-22T05:23:31.143Z,61.12
2022-08-22T05:26:07.158Z,60.70
2022-08-22T05:28:44.901Z,60.88
2022-08-22T05:31:23.184Z,60.74
2022-08-22T05:34:01.116Z,60.94
2022-08-22T05:36:38.025Z,60.70
2022-08-22T05:39:13.345Z,60.61
2022-08-22T05:41:44.853Z,60.52
2022-08-22T05:44:24.738Z,60.46
2022-08-22T05:47:02.549Z,60.29
2022-08-22T05:49:41.796Z,60.29
2022-08-22T05:52:28.995Z,60.12
2022-08-22T05:55:09.308Z,60.13
2022-08-22T05:57:45.617Z,59.84
2022-08-22T06:00:22.355Z,59.77
2022-08-22T06:03:05.923Z,59.83
2022-08-22T06:05:45.007Z,59.63
2022-08-22T06:08:25.926Z,59.61
2022-08-22T06:11:04.473Z,59.82
2022-08-22T06:13:41.338Z,59.94
2022-08-22T06:16:20.609Z,59.76
2022-08-22T06:18:54.495Z,59.87
2022-08-22T06:21:38.618Z,59.99
2022-08-22T06:24:21.372Z,59.87
2022-08-22T06:26:58.222Z,59.84
2022-08-22T06:29:36.623Z,59.77
2022-08-22T06:32:16.895Z,59.83
2022-08-22T06:35:15.009Z,60.15
2022-08-22T06:37:50.103Z,59.72
2022-08-22T06:40:23.439Z,59.83
2022-08-22T06:42:57.297Z,59.82
2022-08-22T06:45:33.331Z,59.86
2022-08-22T06:48:17.978Z,59.83
2022-08-22T06:50:58.641Z,60.13
2022-08-22T06:53:37.362Z,60.01
2022-08-22T06:56:20.687Z,59.96
2022-08-22T06:58:57.606Z,59.83
2022-08-22T07:01:35.427Z,59.81
2022-08-22T07:04:10.625Z,59.86
2022-08-22T07:06:43.363Z,59.49
2022-08-22T07:09:24.780Z,59.86
2022-08-22T07:11:59.041Z,59.70
2022-08-22T07:14:40.630Z,59.79
2022-08-22T07:17:19.583Z,59.55
2022-08-22T07:20:00.013Z,59.32
2022-08-22T07:22:35.016Z,59.44
2022-08-22T07:25:12.304Z,59.58
2022-08-22T07:28:04.860Z,59.76
2022-08-22T07:30:51.250Z,59.65
2022-08-22T07:33:39.266Z,59.78
2022-08-22T07:36:32.089Z,59.67
2022-08-22T07:39:27.112Z,59.44
2022-08-22T07:42:08.313Z,59.57
2022-08-22T07:44:55.406Z,59.43
2022-08-22T07:47:38.659Z,59.48
2022-08-22T07:50:19.438Z,59.34
2022-08-22T07:52:54.029Z,59.70
2022-08-22T07:55:28.734Z,59.67
2022-08-22T07:58:05.106Z,59.42
2022-08-22T08:00:42.927Z,59.46
2022-08-22T08:03:16.228Z,59.33
2022-08-22T08:05:48.545Z,59.46
2022-08-22T08:08:25.903Z,59.31
2022-08-22T08:11:00.967Z,59.11
2022-08-22T08:13:38.352Z,58.55
2022-08-22T08:16:18.027Z,58.23
2022-08-22T08:18:52.524Z,58.02
2022-08-22T08:21:35.060Z,57.77
2022-08-22T08:24:13.714Z,57.57
2022-08-22T08:27:06.070Z,57.21
2022-08-22T08:29:39.103Z,56.52
2022-08-22T08:32:14.538Z,56.60
2022-08-22T08:34:47.345Z,56.20
2022-08-22T08:37:28.105Z,56.07
2022-08-22T08:40:05.233Z,55.85
2022-08-22T08:43:26.108Z,55.71
2022-08-22T08:46:28.367Z,54.99
2022-08-22T08:49:21.075Z,54.48
2022-08-22T08:52:10.873Z,54.06
2022-08-22T08:55:00.785Z,53.60
2022-08-22T08:57:49.568Z,53.19
2022-08-22T09:00:33.186Z,52.78
2022-08-22T09:03:11.979Z,52.40
2022-08-22T09:06:02.533Z,52.03
2022-08-22T09:08:55.668Z,51.56
2022-08-22T09:12:03.332Z,50.91
2022-08-22T09:15:14.281Z,50.27
2022-08-22T09:18:12.016Z,49.81
2022-08-22T09:21:04.185Z,49.15
2022-08-22T09:24:12.553Z,48.91
2022-08-22T09:26:57.222Z,48.69
2022-08-22T09:29:54.962Z,48.20
2022-08-22T09:32:44.199Z,47.64
2022-08-22T09:35:27.036Z,47.21
2022-08-22T09:38:26.640Z,46.69
2022-08-22T09:41:11.319Z,46.66
2022-08-22T09:43:49.446Z,46.32
2022-08-22T09:46:31.422Z,46.37
2022-08-22T09:49:14.550Z,46.17
2022-08-22T09:52:14.284Z,46.12
2022-08-22T09:54:51.469Z,45.86
2022-08-22T09:57:33.403Z,45.78
2022-08-22T10:00:22.319Z,45.92
2022-08-22T10:03:04.276Z,45.60
2022-08-22T10:05:44.216Z,45.75
2022-08-22T10:08:31.666Z,45.78
2022-08-22T10:11:21.186Z,45.48
2022-08-22T10:14:02.479Z,45.34
2022-08-22T10:16:54.897Z,45.21
2022-08-22T10:19:33.877Z,44.93
2022-08-22T10:22:29.860Z,44.64
2022-08-22T10:25:21.147Z,44.11
2022-08-22T10:28:05.863Z,43.79
2022-08-22T10:30:54.918Z,43.62
2022-08-22T10:33:34.494Z,43.66
2022-08-22T10:36:12.022Z,43.49
2022-08-22T10:38:48.824Z,43.55
2022-08-22T10:41:33.988Z,43.46
2022-08-22T10:44:14.225Z,43.73
2022-08-22T10:46:54.396Z,43.59
2022-08-22T10:49:33.793Z,44.07
2022-08-22T10:52:15.483Z,43.65
2022-08-22T10:54:52.917Z,43.82
2022-08-22T10:57:38.981Z,43.66
2022-08-22T11:00:22.611Z,43.66
2022-08-22T11:03:02.613Z,43.65
2022-08-22T11:05:41.304Z,43.59
2022-08-22T11:08:46.124Z,43.79
2022-08-22T11:11:37.046Z,43.64
2022-08-22T11:14:36.231Z,43.81
2022-08-22T11:17:31.171Z,43.93
2022-08-22T11:20:19.896Z,43.79
2022-08-22T11:23:13.400Z,43.41
2022-08-22T11:25:58.485Z,43.67
2022-08-22T11:28:56.544Z,43.71
2022-08-22T11:31:47.350Z,43.81
2022-08-22T11:34:42.635Z,43.67
2022-08-22T11:37:42.443Z,43.80
2022-08-22T11:40:26.126Z,44.03
2022-08-22T11:43:18.304Z,43.72
2022-08-22T11:45:53.661Z,44.03
2022-08-22T11:48:33.192Z,44.06
2022-08-22T11:51:15.721Z,44.29
2022-08-22T11:53:53.387Z,44.27
2022-08-22T11:56:32.507Z,44.14
2022-08-22T11:59:19.350Z,44.28
2022-08-22T12:02:01.395Z,44.01
2022-08-22T12:04:42.656Z,43.81
2022-08-22T12:07:20.236Z,43.95
2022-08-22T12:09:58.234Z,44.09
2022-08-22T12:12:51.275Z,44.39
2022-08-22T12:15:28.658Z,43.97
2022-08-22T12:18:32.096Z,43.90
2022-08-22T12:21:30.121Z,43.76
2022-08-22T12:24:26.384Z,43.97
2022-08-22T12:27:32.307Z,43.94
2022-08-22T12:30:14.938Z,43.96
2022-08-22T12:33:17.313Z,43.72
2022-08-22T12:36:06.392Z,44.27
2022-08-22T12:39:01.295Z,43.77
2022-08-22T12:42:01.548Z,43.69
2022-08-22T12:44:44.864Z,43.75
2022-08-22T12:47:32.283Z,43.50
2022-08-22T12:50:28.906Z,43.48
2022-08-22T12:53:26.967Z,43.56
2022-08-22T12:56:14.076Z,43.17
2022-08-22T12:59:05.385Z,43.05
2022-08-22T13:01:43.517Z,43.20
2022-08-22T13:04:29.674Z,42.97
2022-08-22T13:07:11.457Z,42.79
2022-08-22T13:09:52.311Z,43.02
2022-08-22T13:12:32.376Z,42.79
2022-08-22T13:15:25.588Z,42.63
2022-08-22T13:18:18.873Z,42.54
2022-08-22T13:20:55.234Z,42.35
2022-08-22T13:23:34.293Z,42.68
2022-08-22T13:26:32.974Z,42.55
2022-08-22T13:29:25.737Z,42.54
2022-08-22T13:32:02.427Z,42.43
2022-08-22T13:34:44.695Z,42.70
2022-08-22T13:37:24.748Z,42.70
2022-08-22T13:40:03.309Z,43.25
2022-08-22T13:42:47.880Z,43.03
2022-08-22T13:45:26.298Z,43.25
2022-08-22T13:48:03.802Z,43.09
2022-08-22T13:50:53.408Z,43.31
2022-08-22T13:53:35.694Z,43.66
2022-08-22T13:56:15.449Z,43.40
2022-08-22T13:58:52.762Z,43.48
2022-08-22T14:01:46.861Z,43.91
2022-08-22T14:04:32.292Z,44.13
2022-08-22T14:07:31.723Z,44.43
2022-08-22T14:10:15.086Z,44.86
2022-08-22T14:13:09.052Z,45.10
2022-08-22T14:15:45.411Z,45.67
2022-08-22T14:18:36.092Z,45.77
2022-08-22T14:21:40.920Z,45.90
2022-08-22T14:24:27.282Z,46.20
2022-08-22T14:27:05.309Z,46.24
2022-08-22T14:29:44.745Z,46.81
2022-08-22T14:32:45.211Z,47.02
2022-08-22T14:35:34.974Z,47.28
2022-08-22T14:38:27.450Z,47.53
2022-08-22T14:41:06.847Z,47.56
2022-08-22T14:43:54.648Z,48.02
2022-08-22T14:46:36.689Z,48.00
2022-08-22T14:49:47.933Z,48.06
2022-08-22T14:52:34.335Z,48.11
2022-08-22T14:55:22.911Z,48.21
2022-08-22T14:58:00.072Z,48.38
2022-08-22T15:00:47.842Z,48.37
2022-08-22T15:03:32.321Z,48.53
2022-08-22T15:06:07.630Z,48.50
2022-08-22T15:08:49.299Z,48.87
2022-08-22T15:11:27.827Z,49.05
2022-08-22T15:14:08.072Z,49.01
2022-08-22T15:16:47.824Z,48.93
2022-08-22T15:19:35.494Z,49.20
2022-08-22T15:22:18.048Z,49.29
2022-08-22T15:25:08.548Z,49.65
2022-08-22T15:27:50.110Z,49.59
2022-08-22T15:30:36.762Z,49.63
2022-08-22T15:33:15.692Z,49.73
2022-08-22T15:35:49.101Z,49.80
2022-08-22T15:38:31.062Z,49.77
2022-08-22T15:41:31.428Z,49.85
2022-08-22T15:44:17.191Z,49.88
2022-08-22T15:47:24.353Z,50.00
2022-08-22T15:50:02.518Z,50.08
2022-08-22T15:53:13.717Z,50.06
2022-08-22T15:56:24.978Z,50.36
2022-08-22T15:59:24.887Z,50.53
2022-08-22T16:02:04.763Z,50.46
2022-08-22T16:04:43.609Z,50.62
2022-08-22T16:07:40.125Z,50.62
2022-08-22T16:10:31.737Z,50.68
2022-08-22T16:13:34.221Z,50.68
2022-08-22T16:16:08.982Z,50.71
2022-08-22T16:19:20.488Z,50.70
2022-08-22T16:22:18.279Z,50.80
2022-08-22T16:25:10.730Z,50.63
2022-08-22T16:27:58.808Z,50.52
2022-08-22T16:30:39.695Z,50.63
2022-08-22T16:33:18.464Z,50.46
2022-08-22T16:36:37.150Z,50.25
2022-08-22T16:39:32.840Z,50.07
2022-08-22T16:42:26.079Z,49.94
2022-08-22T16:45:16.150Z,49.84
2022-08-22T16:47:56.799Z,49.61
2022-08-22T16:50:41.104Z,49.52
2022-08-22T16:53:59.687Z,49.23
2022-08-22T16:56:38.388Z,49.24
2022-08-22T16:59:38.557Z,49.17
2022-08-22T17:02:33.242Z,49.21
2022-08-22T17:05:29.420Z,49.14
2022-08-22T17:08:24.627Z,49.06
2022-08-22T17:11:06.146Z,49.06
2022-08-22T17:13:57.923Z,48.89
2022-08-22T17:16:53.769Z,48.91
2022-08-22T17:19:46.747Z,49.09
2022-08-22T17:22:29.591Z,49.31
2022-08-22T17:25:18.848Z,49.50
2022-08-22T17:28:03.136Z,49.55
2022-08-22T17:30:42.762Z,49.68
2022-08-22T17:33:27.937Z,49.86
2022-08-22T17:36:26.994Z,50.02
2022-08-22T17:39:13.084Z,49.99
2022-08-22T17:41:50.839Z,50.31
2022-08-22T17:44:33.373Z,50.38
2022-08-22T17:47:15.112Z,50.48
2022-08-22T17:49:58.176Z,50.67
2022-08-22T17:52:36.436Z,50.55
2022-08-22T17:55:17.347Z,50.69
2022-08-22T17:57:54.943Z,50.75
2022-08-22T18:00:31.404Z,50.68
2022-08-22T18:03:09.377Z,50.88
2022-08-22T18:05:55.322Z,50.69
2022-08-22T18:08:38.083Z,50.57
2022-08-22T18:11:17.507Z,50.72
2022-08-22T18:13:57.235Z,50.79
2022-08-22T18:16:33.911Z,50.77
2022-08-22T18:19:13.966Z,50.82
2022-08-22T18:21:54.334Z,50.83
2022-08-22T18:24:35.207Z,51.10
2022-08-22T18:27:10.674Z,51.00
2022-08-22T18:30:08.621Z,51.12
2022-08-22T18:32:49.044Z,51.17
2022-08-22T18:35:26.454Z,51.27
2022-08-22T18:38:19.730Z,51.53
2022-08-22T18:40:58.499Z,51.84
2022-08-22T18:43:39.603Z,52.11
2022-08-22T18:46:34.116Z,52.35
2022-08-22T18:49:34.650Z,52.38
2022-08-22T18:52:34.336Z,52.50
2022-08-22T18:55:44.423Z,52.71
2022-08-22T18:58:42.640Z,53.07
2022-08-22T19:01:46.297Z,52.95
2022-08-22T19:04:47.158Z,53.13
2022-08-22T19:07:42.546Z,53.32
2022-08-22T19:10:43.415Z,53.45
2022-08-22T19:13:32.986Z,53.77
2022-08-22T19:16:31.568Z,53.63
2022-08-22T19:19:07.146Z,53.62
2022-08-22T19:22:20.850Z,53.91
2022-08-22T19:25:18.162Z,54.16
2022-08-22T19:28:26.846Z,54.27
2022-08-22T19:31:23.393Z,54.49
2022-08-22T19:34:29.369Z,54.62
2022-08-22T19:37:32.720Z,54.64
2022-08-22T19:40:10.217Z,54.71
2022-08-22T19:42:49.908Z,54.99
2022-08-22T19:45:29.107Z,54.96
2022-08-22T19:48:14.193Z,54.92
2022-08-22T19:50:47.089Z,54.98
2022-08-22T19:53:43.144Z,55.05
2022-08-22T19:56:35.742Z,55.08
2022-08-22T19:59:24.271Z,55.07
2022-08-22T20:02:03.412Z,55.27
2022-08-22T20:05:07.867Z,55.49
2022-08-22T20:07:57.416Z,55.51
2022-08-22T20:10:39.825Z,55.63
2022-08-22T20:13:22.239Z,55.44
2022-08-22T20:16:22.417Z,55.45
2022-08-22T20:19:17.553Z,55.71
2022-08-22T20:22:02.651Z,55.99
2022-08-22T20:24:40.419Z,55.84
2022-08-22T20:27:20.371Z,55.98
2022-08-22T20:30:03.103Z,56.03
2022-08-22T20:32:40.671Z,56.17
2022-08-22T20:35:18.806Z,56.28
2022-08-22T20:38:06.713Z,56.28
2022-08-22T20:41:00.749Z,56.45
2022-08-22T20:43:38.408Z,56.57
2022-08-22T20:46:24.599Z,56.44
2022-08-22T20:48:58.555Z,56.51
2022-08-22T20:51:33.433Z,56.59
2022-08-22T20:54:19.734Z,56.75
2022-08-22T20:56:55.928Z,56.75
2022-08-22T20:59:36.015Z,56.75
2022-08-22T21:02:19.419Z,57.11
2022-08-22T21:05:03.727Z,57.25
2022-08-22T21:07:38.979Z,57.26
2022-08-22T21:10:37.269Z,57.38
2022-08-22T21:13:12.555Z,57.41
2022-08-22T21:15:47.507Z,57.24
2022-08-22T21:18:30.005Z,57.21
2022-08-22T21:21:17.718Z,57.38
2022-08-22T21:23:52.515Z,57.46
2022-08-22T21:26:28.258Z,57.38
2022-08-22T21:29:04.827Z,57.21
2022-08-22T21:31:43.231Z,57.76
2022-08-22T21:34:20.919Z,57.41
2022-08-22T21:36:54.740Z,57.40
2022-08-22T21:39:30.736Z,57.73
2022-08-22T21:42:17.831Z,57.71
2022-08-22T21:44:58.920Z,57.78
2022-08-22T21:47:35.195Z,57.88
2022-08-22T21:50:29.084Z,57.96
2022-08-22T21:53:09.148Z,57.87
2022-08-22T21:55:47.201Z,57.93
2022-08-22T21:58:35.861Z,58.03
2022-08-22T22:01:30.432Z,58.00
2022-08-22T22:04:03.605Z,57.94
2022-08-22T22:06:35.800Z,57.83
2022-08-22T22:09:11.929Z,57.85
2022-08-22T22:11:47.248Z,58.25
2022-08-22T22:14:19.693Z,58.07
2022-08-22T22:16:51.880Z,58.06
2022-08-22T22:19:24.000Z,58.17
2022-08-22T22:21:58.024Z,58.19
2022-08-22T22:24:30.183Z,58.33
2022-08-22T22:27:04.704Z,58.41
2022-08-22T22:29:37.388Z,58.36
2022-08-22T22:32:10.528Z,58.43
2022-08-22T22:34:42.744Z,58.35
2022-08-22T22:37:15.863Z,58.37
2022-08-22T22:39:48.174Z,58.39
2022-08-22T22:42:20.492Z,58.48
2022-08-22T22:44:52.696Z,58.65
2022-08-22T22:47:28.900Z,58.46
2022-08-22T22:50:01.156Z,58.60
2022-08-22T22:52:33.311Z,58.69
2022-08-22T22:55:12.428Z,58.80
2022-08-22T22:57:58.575Z,58.55
2022-08-22T23:00:34.500Z,58.59
2022-08-22T23:03:08.108Z,58.70
2022-08-22T23:05:40.313Z,58.75
2022-08-22T23:08:12.491Z,58.90
2022-08-22T23:10:44.710Z,58.51
2022-08-22T23:13:17.176Z,58.73
2022-08-22T23:15:49.316Z,58.92
2022-08-22T23:18:21.455Z,58.88
2022-08-22T23:21:13.243Z,58.71
2022-08-22T23:23:46.878Z,58.90
2022-08-22T23:26:19.620Z,58.98
2022-08-22T23:28:51.831Z,58.58
2022-08-22T23:31:31.672Z,58.89
2022-08-22T23:34:08.031Z,58.82
2022-08-22T23:36:41.954Z,58.84
2022-08-22T23:39:16.058Z,59.07
2022-08-22T23:41:49.352Z,59.12
2022-08-22T23:44:24.904Z,59.26
2022-08-22T23:46:57.483Z,59.08
2022-08-22T23:49:30.367Z,58.97
2022-08-22T23:52:02.921Z,59.04
2022-08-22T23:54:35.517Z,59.01
2022-08-22T23:57:12.038Z,59.01
2022-08-22T23:59:48.000Z,59.24
